Time;durP1;ratioP1;P1;durP2;ratioP2;P2;SDS_P1;SDS_P2;PMS_P1;PMS_P2;Temp;Humidity;BMP_temperature;BMP_pressure;BME280_temperature;BME280_humidity;BME280_pressure;Samples;Min_cycle;Max_cycle;Signal;HPM_P1;HPM_P2
2021/09/05 00:00:52;;;;;;;;;;;;;;;24.14;61.85;100993.25;5053347;28;1044;-48
2021/09/05 00:03:18;;;;;;;;;;;;;;;24.11;62.00;100998.97;5052791;28;1461;-48
2021/09/05 00:05:45;;;;;;;;;;;;;;;24.11;61.50;100981.94;5053292;28;999;-48
2021/09/05 00:08:12;;;;;;;;;;;;;;;24.11;61.78;100998.13;5052886;28;1099;-48
2021/09/05 00:10:39;;;;;;;;;;;;;;;24.12;61.89;101000.69;5052899;28;1971;-48
2021/09/05 00:13:06;;;;;;;;;;;;;;;24.11;61.77;100992.72;5053220;28;994;-48
2021/09/05 00:15:32;;;;;;;;;;;;;;;24.09;61.71;101005.56;5053195;28;996;-49
2021/09/05 00:17:59;;;;;;;;;;;;;;;24.11;61.81;101004.38;5055049;28;1138;-48
2021/09/05 00:20:25;;;;;;;;;;;;;;;24.07;61.91;100997.59;5056583;28;1099;-48
2021/09/05 00:22:52;;;;;;;;;;;;;;;24.11;62.07;100998.13;5056954;28;994;-48
2021/09/05 00:25:19;;;;;;;;;;;;;;;24.11;61.98;101003.53;5056924;28;1953;-48
2021/09/05 00:27:46;;;;;;;;;;;;;;;24.09;61.64;101006.41;5056857;28;1023;-48
2021/09/05 00:30:12;;;;;;;;;;;;;;;24.09;61.64;101005.56;5056760;28;1971;-48
2021/09/05 00:32:39;;;;;;;;;;;;;;;24.11;62.00;101004.38;5056733;28;1089;-48
2021/09/05 00:35:06;;;;;;;;;;;;;;;24.10;61.68;100997.28;5056703;28;993;-48
2021/09/05 00:37:32;;;;;;;;;;;;;;;24.09;61.63;101019.06;5056375;28;1025;-48
2021/09/05 00:39:59;;;;;;;;;;;;;;;24.07;61.72;101005.72;5056640;28;1113;-48
2021/09/05 00:42:28;;;;;;;;;;;;;;;24.07;61.96;101012.97;5056588;28;1005;-49
2021/09/05 00:44:55;;;;;;;;;;;;;;;24.07;61.52;101010.28;5056175;28;1072;-49
2021/09/05 00:47:22;;;;;;;;;;;;;;;24.06;61.22;101006.75;5056179;28;1079;-48
2021/09/05 00:49:48;;;;;;;;;;;;;;;24.06;61.73;101005.91;5056041;28;1975;-48
2021/09/05 00:52:15;;;;;;;;;;;;;;;24.07;61.58;101005.72;5056593;28;994;-48
2021/09/05 00:54:43;;;;;;;;;;;;;;;24.05;61.83;101005.03;5056366;28;1268;-48
2021/09/05 00:57:10;;;;;;;;;;;;;;;24.05;61.25;101004.19;5056221;28;1081;-48
2021/09/05 00:59:38;;;;;;;;;;;;;;;24.08;61.17;101015.53;5055955;28;1079;-48
2021/09/05 01:02:05;;;;;;;;;;;;;;;24.04;61.34;101008.75;5055792;28;1382;-48
2021/09/05 01:04:31;;;;;;;;;;;;;;;24.05;61.94;101010.44;5056195;28;993;-48
2021/09/05 01:06:58;;;;;;;;;;;;;;;24.06;61.47;101006.75;5055817;28;1170;-48
2021/09/05 01:09:24;;;;;;;;;;;;;;;24.09;61.52;101000.16;5055615;28;1906;-48
2021/09/05 01:11:51;;;;;;;;;;;;;;;24.08;61.46;101006.59;5055726;28;1146;-48
2021/09/05 01:14:18;;;;;;;;;;;;;;;24.04;61.53;101016.88;5055995;28;998;-49
2021/09/05 01:16:46;;;;;;;;;;;;;;;24.03;61.70;101001.66;5055921;28;1004;-48
2021/09/05 01:19:13;;;;;;;;;;;;;;;24.05;61.21;101006.91;5055854;28;1058;-49
2021/09/05 01:21:40;;;;;;;;;;;;;;;24.03;61.03;101009.75;5055559;28;1178;-49
2021/09/05 01:24:07;;;;;;;;;;;;;;;24.06;61.54;101017.53;5055775;28;1039;-48
2021/09/05 01:26:35;;;;;;;;;;;;;;;24.02;60.90;101019.72;5055512;28;1185;-49
2021/09/05 01:29:04;;;;;;;;;;;;;;;24.05;61.08;100998.78;5054904;28;1906;-49
2021/09/05 01:31:36;;;;;;;;;;;;;;;24.04;61.75;101018.72;5055595;28;1003;-48
2021/09/05 01:34:03;;;;;;;;;;;;;;;24.06;61.07;101011.31;5055695;28;1038;-48
2021/09/05 01:36:29;;;;;;;;;;;;;;;24.03;61.47;101015.16;5055564;28;1085;-49
2021/09/05 01:38:56;;;;;;;;;;;;;;;24.03;61.58;101023.25;5055515;28;1093;-48
2021/09/05 01:41:22;;;;;;;;;;;;;;;24.05;61.26;101004.19;5055184;28;1091;-48
2021/09/05 01:43:49;;;;;;;;;;;;;;;24.01;61.22;101018.03;5055023;28;942;-49
2021/09/05 01:46:16;;;;;;;;;;;;;;;24.02;61.38;101018.88;5055443;28;1039;-48
2021/09/05 01:48:43;;;;;;;;;;;;;;;24.03;61.66;101025.97;5055063;28;1143;-48
2021/09/05 01:51:09;;;;;;;;;;;;;;;24.03;61.22;101023.25;5055233;28;1973;-48
2021/09/05 01:53:36;;;;;;;;;;;;;;;24.04;61.21;101022.28;5055231;28;1075;-49
2021/09/05 01:56:02;;;;;;;;;;;;;;;24.02;61.18;101024.28;5054792;28;1099;-48
2021/09/05 01:58:29;;;;;;;;;;;;;;;23.99;61.54;101032.69;5055144;28;1037;-48
2021/09/05 02:00:56;;;;;;;;;;;;;;;23.99;60.71;101027.31;5171236;22;3634;-48
2021/09/05 02:03:24;;;;;;;;;;;;;;;23.97;61.21;101019.38;5056152;28;1443;-48
2021/09/05 02:05:50;;;;;;;;;;;;;;;24.03;61.53;101025.97;5055102;28;1038;-48
2021/09/05 02:08:17;;;;;;;;;;;;;;;24.01;61.03;101036.09;5054997;28;991;-49
2021/09/05 02:10:43;;;;;;;;;;;;;;;24.04;60.90;101040.34;5054549;28;1973;-48
2021/09/05 02:13:10;;;;;;;;;;;;;;;23.98;61.21;101047.22;5054591;28;1066;-48
2021/09/05 02:15:36;;;;;;;;;;;;;;;24.03;60.87;101050.28;5055035;28;998;-48
2021/09/05 02:18:03;;;;;;;;;;;;;;;23.98;61.41;101042.66;5054560;28;1094;-47
2021/09/05 02:20:30;;;;;;;;;;;;;;;23.98;61.24;101039.13;5054666;28;1002;-48
2021/09/05 02:22:57;;;;;;;;;;;;;;;24.01;61.35;101057.69;5054400;28;1055;-48
2021/09/05 02:25:23;;;;;;;;;;;;;;;24.01;60.95;101053.16;5054671;28;1081;-48
2021/09/05 02:27:50;;;;;;;;;;;;;;;24.02;61.15;101059.41;5054443;28;1106;-48
2021/09/05 02:30:16;;;;;;;;;;;;;;;23.99;61.21;101054.31;5054250;28;1911;-48
2021/09/05 02:32:43;;;;;;;;;;;;;;;23.98;61.18;101047.22;5054563;28;1015;-48
2021/09/05 02:35:10;;;;;;;;;;;;;;;24.01;60.79;101042.34;5054127;28;1202;-48
2021/09/05 02:37:38;;;;;;;;;;;;;;;24.03;61.07;101044.88;5054432;28;1028;-48
2021/09/05 02:40:05;;;;;;;;;;;;;;;23.98;60.92;101036.44;5053653;28;1073;-48
2021/09/05 02:42:33;;;;;;;;;;;;;;;23.99;60.85;101043.50;5054067;28;1363;-48
2021/09/05 02:44:59;;;;;;;;;;;;;;;23.97;60.85;101038.28;5054224;28;1046;-48
2021/09/05 02:47:26;;;;;;;;;;;;;;;24.01;61.17;101028.84;5053983;28;1138;-48
2021/09/05 02:49:52;;;;;;;;;;;;;;;23.98;60.51;101034.56;5054189;28;1906;-48
2021/09/05 02:52:19;;;;;;;;;;;;;;;23.99;61.04;101048.91;5054124;28;1055;-47
2021/09/05 02:54:47;;;;;;;;;;;;;;;23.96;60.89;101033.88;5053782;28;1181;-48
2021/09/05 02:57:13;;;;;;;;;;;;;;;23.97;60.33;101048.22;5054110;28;995;-48
2021/09/05 02:59:40;;;;;;;;;;;;;;;23.96;60.55;101033.03;5054084;28;1003;-48
2021/09/05 03:02:06;;;;;;;;;;;;;;;23.95;61.46;101037.56;5053459;28;1265;-48
2021/09/05 03:04:33;;;;;;;;;;;;;;;23.95;60.88;101021.38;5053942;28;1032;-48
2021/09/05 03:07:00;;;;;;;;;;;;;;;23.93;60.78;101031.50;5053912;28;1065;-48
2021/09/05 03:09:27;;;;;;;;;;;;;;;23.98;60.34;101041.81;5053874;28;1910;-48
2021/09/05 03:11:55;;;;;;;;;;;;;;;23.95;60.27;101047.53;5053934;28;1076;-48
2021/09/05 03:14:21;;;;;;;;;;;;;;;23.94;60.57;101035.91;5053583;28;1181;-48
2021/09/05 03:16:47;;;;;;;;;;;;;;;23.95;60.56;101050.25;5053721;28;999;-48
2021/09/05 03:19:14;;;;;;;;;;;;;;;23.95;60.80;101037.56;5053790;28;1076;-48
2021/09/05 03:21:41;;;;;;;;;;;;;;;23.95;60.34;101047.53;5053830;28;1948;-48
2021/09/05 03:24:07;;;;;;;;;;;;;;;23.93;60.70;101038.75;5053415;28;1114;-48
2021/09/05 03:26:34;;;;;;;;;;;;;;;23.95;60.33;101051.09;5053439;28;922;-48
2021/09/05 03:29:02;;;;;;;;;;;;;;;23.93;61.10;101030.66;5053312;28;1098;-48
2021/09/05 03:31:29;;;;;;;;;;;;;;;23.93;60.68;101046.84;5053569;28;1977;-48
2021/09/05 03:33:55;;;;;;;;;;;;;;;23.97;60.31;101062.59;5053409;28;1099;-48
2021/09/05 03:36:22;;;;;;;;;;;;;;;23.93;61.06;101061.19;5053656;28;1069;-48
2021/09/05 03:38:48;;;;;;;;;;;;;;;23.96;60.09;101054.66;5053587;28;1056;-48
2021/09/05 03:41:15;;;;;;;;;;;;;;;23.95;60.86;101063.75;5053538;28;1001;-48
2021/09/05 03:43:41;;;;;;;;;;;;;;;23.94;60.57;101068.31;5053559;28;987;-48
2021/09/05 03:46:09;;;;;;;;;;;;;;;23.95;60.39;101069.16;5053229;28;1181;-48
2021/09/05 03:48:36;;;;;;;;;;;;;;;23.93;60.56;101073.88;5053555;28;995;-47
2021/09/05 03:51:02;;;;;;;;;;;;;;;23.96;60.32;101087.06;5054142;28;1977;-48
2021/09/05 03:53:29;;;;;;;;;;;;;;;23.94;60.28;101106.13;5057526;28;1060;-48
2021/09/05 03:55:55;;;;;;;;;;;;;;;23.95;60.42;101104.25;5057558;28;1075;-48
2021/09/05 03:58:22;;;;;;;;;;;;;;;23.94;60.71;101094.47;5057492;28;1021;-48
2021/09/05 04:00:49;;;;;;;;;;;;;;;23.91;60.52;101102.91;5057441;28;994;-48
2021/09/05 04:03:17;;;;;;;;;;;;;;;23.94;60.60;101116.09;5056766;28;1333;-48
2021/09/05 04:05:44;;;;;;;;;;;;;;;23.91;60.56;101108.28;5057387;28;1068;-48
2021/09/05 04:08:15;;;;;;;;;;;;;;;23.92;60.68;101107.31;5057008;28;1059;-48
2021/09/05 04:10:41;;;;;;;;;;;;;;;23.92;60.11;101104.59;5056880;28;1905;-48
2021/09/05 04:13:09;;;;;;;;;;;;;;;23.93;60.43;101120.63;5056909;28;1098;-48
2021/09/05 04:15:35;;;;;;;;;;;;;;;23.95;60.33;101118.59;5056864;28;1094;-48
2021/09/05 04:18:02;;;;;;;;;;;;;;;23.94;60.71;101116.09;5057168;28;997;-48
2021/09/05 04:20:29;;;;;;;;;;;;;;;23.91;60.83;101113.69;5057047;28;1087;-48
2021/09/05 04:22:56;;;;;;;;;;;;;;;23.92;60.43;101127.06;5057045;28;1054;-48
2021/09/05 04:25:22;;;;;;;;;;;;;;;23.94;60.92;101140.41;5056666;28;1134;-48
2021/09/05 04:27:49;;;;;;;;;;;;;;;23.91;61.11;101124.50;5056904;28;1003;-48
2021/09/05 04:30:15;;;;;;;;;;;;;;;23.90;60.73;101130.94;5055959;28;1977;-48
2021/09/05 04:32:42;;;;;;;;;;;;;;;23.93;61.05;101136.84;5056822;28;1003;-48
2021/09/05 04:35:09;;;;;;;;;;;;;;;23.93;60.32;101139.53;5056812;28;1076;-48
2021/09/05 04:37:37;;;;;;;;;;;;;;;23.94;60.57;101145.81;5056427;28;1099;-48
2021/09/05 04:40:05;;;;;;;;;;;;;;;23.94;60.88;101148.50;5056721;28;1047;-48
2021/09/05 04:42:31;;;;;;;;;;;;;;;23.96;61.17;101154.59;5056514;28;1073;-48
2021/09/05 04:44:58;;;;;;;;;;;;;;;23.91;61.33;101138.00;5056278;28;1079;-48
2021/09/05 04:47:24;;;;;;;;;;;;;;;23.92;60.78;101139.72;5056263;28;1158;-48
2021/09/05 04:49:51;;;;;;;;;;;;;;;23.92;60.82;101150.53;5056090;28;1902;-48
2021/09/05 04:52:17;;;;;;;;;;;;;;;23.93;60.90;101142.22;5056381;28;1062;-48
2021/09/05 04:54:45;;;;;;;;;;;;;;;23.96;60.72;101160.00;5056330;28;1046;-48
2021/09/05 04:57:12;;;;;;;;;;;;;;;23.93;61.41;101144.94;5056390;28;1049;-47
2021/09/05 04:59:38;;;;;;;;;;;;;;;23.91;61.21;101151.50;5056323;28;1094;-48
2021/09/05 05:02:05;;;;;;;;;;;;;;;23.93;61.18;101147.63;5055467;28;1335;-48
2021/09/05 05:04:31;;;;;;;;;;;;;;;23.92;61.41;101156.75;5055193;28;1158;-48
2021/09/05 05:06:58;;;;;;;;;;;;;;;23.93;60.67;101161.13;5056121;28;1088;-48
2021/09/05 05:09:24;;;;;;;;;;;;;;;23.93;60.69;101168.41;5055830;28;1063;-48
2021/09/05 05:11:52;;;;;;;;;;;;;;;23.94;61.32;101156.59;5055722;28;1972;-48
2021/09/05 05:14:19;;;;;;;;;;;;;;;23.95;60.82;101150.19;5055768;28;1063;-48
2021/09/05 05:16:45;;;;;;;;;;;;;;;23.94;61.23;101160.16;5056178;28;993;-48
2021/09/05 05:19:12;;;;;;;;;;;;;;;23.91;61.27;101160.44;5055639;28;1079;-48
2021/09/05 05:21:38;;;;;;;;;;;;;;;23.94;61.18;101159.31;5055917;28;1007;-48
2021/09/05 05:24:05;;;;;;;;;;;;;;;23.93;61.16;101160.31;5055859;28;1006;-48
2021/09/05 05:26:31;;;;;;;;;;;;;;;23.93;60.98;101157.59;5055803;28;1001;-48
2021/09/05 05:29:00;;;;;;;;;;;;;;;23.94;61.35;101168.25;5055371;28;1095;-49
2021/09/05 05:31:26;;;;;;;;;;;;;;;23.96;60.72;101170.81;5055366;28;1910;-48
2021/09/05 05:33:53;;;;;;;;;;;;;;;23.96;61.19;101162.69;5055711;28;1076;-48
2021/09/05 05:36:19;;;;;;;;;;;;;;;23.99;61.59;101167.78;5055641;28;1113;-48
2021/09/05 05:38:46;;;;;;;;;;;;;;;23.98;61.08;101171.50;5055636;28;999;-48
2021/09/05 05:41:13;;;;;;;;;;;;;;;23.99;61.10;101179.44;5055138;28;1094;-48
2021/09/05 05:43:40;;;;;;;;;;;;;;;23.98;61.38;101166.94;5055533;28;1072;-48
2021/09/05 05:46:08;;;;;;;;;;;;;;;24.01;61.35;101193.63;5055218;28;1186;-48
2021/09/05 05:48:34;;;;;;;;;;;;;;;24.03;60.62;101174.53;5055148;28;1078;-48
2021/09/05 05:51:01;;;;;;;;;;;;;;;24.01;60.72;101176.56;5055050;28;1977;-48
2021/09/05 05:53:27;;;;;;;;;;;;;;;24.05;60.70;101212.22;5055272;28;1081;-48
2021/09/05 05:55:54;;;;;;;;;;;;;;;24.03;60.99;101185.34;5054985;28;1102;-48
2021/09/05 05:58:21;;;;;;;;;;;;;;;24.05;60.89;101188.75;5055266;28;1077;-48
2021/09/05 06:00:47;;;;;;;;;;;;;;;24.07;60.79;101178.63;5055248;28;1061;-48
2021/09/05 06:03:15;;;;;;;;;;;;;;;24.05;61.19;101186.03;5054400;28;1349;-48
2021/09/05 06:05:41;;;;;;;;;;;;;;;24.04;61.25;101187.06;5055005;28;1047;-48
2021/09/05 06:08:08;;;;;;;;;;;;;;;24.05;60.91;101191.44;5054791;28;1102;-48
2021/09/05 06:10:34;;;;;;;;;;;;;;;24.08;60.85;101187.59;5054640;28;1997;-48
2021/09/05 06:13:01;;;;;;;;;;;;;;;24.12;61.15;101195.22;5054924;28;1013;-48
2021/09/05 06:15:27;;;;;;;;;;;;;;;24.10;60.52;101197.22;5054607;28;1098;-48
2021/09/05 06:17:54;;;;;;;;;;;;;;;24.11;60.67;101204.31;5054771;28;1080;-48
2021/09/05 06:20:22;;;;;;;;;;;;;;;24.11;60.51;101193.50;5054535;28;1106;-48
2021/09/05 06:22:48;;;;;;;;;;;;;;;24.11;60.24;101198.91;5054766;28;1085;-48
2021/09/05 06:25:15;;;;;;;;;;;;;;;24.11;60.96;101188.09;5054401;28;1094;-48
2021/09/05 06:27:41;;;;;;;;;;;;;;;24.14;60.89;101193.19;5054652;28;1070;-48
2021/09/05 06:30:08;;;;;;;;;;;;;;;24.19;60.49;101199.00;5054214;28;1094;-48
2021/09/05 06:32:35;;;;;;;;;;;;;;;24.22;60.92;101201.34;5054199;28;1957;-48
2021/09/05 06:35:01;;;;;;;;;;;;;;;24.25;60.43;101205.59;5054529;28;998;-47
2021/09/05 06:37:29;;;;;;;;;;;;;;;24.22;60.05;101187.84;5054185;28;1111;-48
2021/09/05 06:39:56;;;;;;;;;;;;;;;24.27;60.57;101198.16;5054152;28;1099;-48
2021/09/05 06:42:22;;;;;;;;;;;;;;;24.29;60.54;101189.91;5054347;28;1084;-48
2021/09/05 06:44:49;;;;;;;;;;;;;;;24.30;60.82;101194.31;5054342;28;1080;-48
2021/09/05 06:47:15;;;;;;;;;;;;;;;24.30;60.84;101200.56;5053995;28;1110;-48
2021/09/05 06:49:41;;;;;;;;;;;;;;;24.30;59.89;101191.63;5053967;28;1087;-48
2021/09/05 06:52:08;;;;;;;;;;;;;;;24.29;60.16;101196.19;5054059;28;1906;-48
2021/09/05 06:54:36;;;;;;;;;;;;;;;24.34;60.56;101201.09;5054091;28;1015;-48
2021/09/05 06:57:04;;;;;;;;;;;;;;;24.32;60.74;101205.81;5053838;28;1103;-47
2021/09/05 06:59:30;;;;;;;;;;;;;;;24.36;60.75;101212.59;5053810;28;1075;-48
2021/09/05 07:01:57;;;;;;;;;;;;;;;24.31;60.35;101193.28;5053330;28;1416;-47
2021/09/05 07:04:23;;;;;;;;;;;;;;;24.35;60.81;101206.34;5054004;28;1077;-48
2021/09/05 07:06:50;;;;;;;;;;;;;;;24.34;60.46;101201.09;5053889;28;1001;-47
2021/09/05 07:09:17;;;;;;;;;;;;;;;24.34;60.80;101203.81;5053666;28;1170;-48
2021/09/05 07:23:32;;;;;;;;;;;;;;;24.35;59.97;101205.47;4708492;27;10002262;-52
2021/09/05 07:26:01;;;;;;;;;;;;;;;24.38;60.12;101213.28;5034753;28;1739;-50
2021/09/05 07:28:29;;;;;;;;;;;;;;;24.39;60.24;101213.13;5040045;28;1744;-50
2021/09/05 07:30:55;;;;;;;;;;;;;;;24.35;60.29;101194.66;5045729;28;1906;-50
2021/09/05 07:33:22;;;;;;;;;;;;;;;24.37;60.60;101215.16;5045552;28;2094;-50
2021/09/05 07:35:48;;;;;;;;;;;;;;;24.36;60.45;101218.00;5047492;28;1593;-50
2021/09/05 07:38:15;;;;;;;;;;;;;;;24.34;60.95;101210.03;5042502;28;1845;-50
2021/09/05 07:40:43;;;;;;;;;;;;;;;24.37;60.47;101216.97;5049440;28;1271;-48
2021/09/05 07:43:10;;;;;;;;;;;;;;;24.35;60.55;101209.06;5044668;28;2087;-48
2021/09/05 07:45:36;;;;;;;;;;;;;;;24.40;60.89;101235.59;5043857;28;1711;-48
2021/09/05 07:48:03;;;;;;;;;;;;;;;24.36;61.08;101218.00;5041241;28;1521;-48
2021/09/05 07:50:32;;;;;;;;;;;;;;;24.41;60.24;101242.69;5042418;28;1469;-48
2021/09/05 07:52:59;;;;;;;;;;;;;;;24.39;60.49;101223.94;5042248;28;1905;-48
2021/09/05 07:55:25;;;;;;;;;;;;;;;24.36;61.04;101208.03;5042396;28;1942;-49
2021/09/05 07:57:53;;;;;;;;;;;;;;;24.44;60.58;101220.75;5049331;28;1793;-48
2021/09/05 08:32:44;;;;;;;;;;;;;;;24.35;60.41;101214.47;4750300;27;10002043;-50
2021/09/05 08:35:11;;;;;;;;;;;;;;;24.42;60.46;101229.00;5090219;28;1718;-50
2021/09/05 08:37:38;;;;;;;;;;;;;;;24.40;60.84;101212.09;5093795;28;1810;-50
2021/09/05 08:40:05;;;;;;;;;;;;;;;24.38;60.83;101222.22;5085487;28;1971;-50
2021/09/05 08:42:33;;;;;;;;;;;;;;;24.40;60.85;101224.78;5084012;28;1712;-50
2021/09/05 08:44:59;;;;;;;;;;;;;;;24.40;60.37;101228.31;5083927;28;1716;-50
2021/09/05 08:47:30;;;;;;;;;;;;;;;24.38;61.22;101216.81;5084030;28;1955;-50
2021/09/05 08:49:59;;;;;;;;;;;;;;;24.42;61.03;101229.00;5088399;28;1242;-50
2021/09/05 08:52:25;;;;;;;;;;;;;;;24.43;60.40;101221.75;5084083;28;1921;-50
2021/09/05 08:54:52;;;;;;;;;;;;;;;24.42;60.93;101222.75;5087843;28;1731;-50
2021/09/05 08:57:18;;;;;;;;;;;;;;;24.46;60.83;101210.63;5084623;28;1679;-50
2021/09/05 08:59:45;;;;;;;;;;;;;;;24.41;60.66;101218.34;5088234;28;1960;-50
2021/09/05 09:02:11;;;;;;;;;;;;;;;24.42;61.24;101210.09;5085203;28;1976;-50
2021/09/05 09:04:38;;;;;;;;;;;;;;;24.41;60.89;101212.94;5085305;28;1540;-50
2021/09/05 09:07:14;;;;;;;;;;;;;;;24.42;61.13;101225.47;5086407;28;1852;-50
2021/09/05 09:09:44;;;;;;;;;;;;;;;24.47;60.75;101217.72;5091780;28;1480;-50
2021/09/05 09:12:10;;;;;;;;;;;;;;;24.48;61.07;101221.28;5091710;28;2041;-50
2021/09/05 09:14:41;;;;;;;;;;;;;;;24.42;61.24;101210.09;5089748;28;1656;-50
2021/09/05 09:17:11;;;;;;;;;;;;;;;24.42;61.27;101215.50;5092298;28;1540;-50
2021/09/05 09:19:38;;;;;;;;;;;;;;;24.47;61.24;101219.56;5093551;28;1288;-50
2021/09/05 09:22:05;;;;;;;;;;;;;;;24.44;61.12;101209.09;5084794;28;1936;-50
2021/09/05 10:23:12;;;;;;;;;;;;;;;24.54;60.34;101194.47;4468402;27;10000931;-48
2021/09/05 10:25:39;;;;;;;;;;;;;;;24.52;60.77;101177.56;5103290;28;1721;-48
2021/09/05 10:28:31;;;;;;;;;;;;;;;24.50;61.22;101197.63;5098685;28;1721;-49
2021/09/05 10:30:58;;;;;;;;;;;;;;;24.53;60.49;101202.72;5100502;28;2000;-48
2021/09/05 10:33:42;;;;;;;;;;;;;;;24.51;60.83;101197.50;5098792;28;1859;-48
2021/09/05 10:36:12;;;;;;;;;;;;;;;24.51;60.67;101200.22;5098078;28;1918;-49
2021/09/05 10:38:43;;;;;;;;;;;;;;;24.50;60.38;101187.69;5098353;28;1996;-49
2021/09/05 10:41:37;;;;;;;;;;;;;;;24.52;60.82;101191.06;5097230;28;1795;-49
2021/09/05 10:46:59;;;;;;;;;;;;;;;24.47;60.76;101198.81;5097736;28;2435;-48
2021/09/05 10:49:46;;;;;;;;;;;;;;;24.54;60.94;101189.06;5094557;28;1935;-49
2021/09/05 10:52:15;;;;;;;;;;;;;;;24.60;57.83;101183.00;5101077;28;1906;-48
2021/09/05 10:54:51;;;;;;;;;;;;;;;24.74;50.28;101199.63;5095402;28;1495;-47
2021/09/05 10:57:34;;;;;;;;;;;;;;;24.72;53.58;101185.41;5102200;28;1894;-47
2021/09/05 11:00:12;;;;;;;;;;;;;;;24.58;50.81;101198.53;5093787;28;1789;-47
2021/09/05 11:02:55;;;;;;;;;;;;;;;24.55;48.43;101190.78;5097864;28;1562;-47
2021/09/05 11:05:24;;;;;;;;;;;;;;;24.46;45.47;101180.88;5099826;28;1585;-47
2021/09/05 11:07:50;;;;;;;;;;;;;;;24.44;46.22;101195.56;5107042;28;1975;-47
2021/09/05 11:13:30;;;;;;;;;;;;;;;24.44;46.57;101196.41;5093867;28;1937;-46
2021/09/05 11:16:16;;;;;;;;;;;;;;;24.45;46.01;101184.56;5104376;28;1464;-47
2021/09/05 11:18:55;;;;;;;;;;;;;;;24.44;43.50;101188.31;5101055;28;1655;-47
2021/09/05 11:21:26;;;;;;;;;;;;;;;24.47;44.86;101188.00;5095684;28;1413;-47
2021/09/05 11:23:55;;;;;;;;;;;;;;;24.42;45.15;101187.63;5112863;28;1919;-47
2021/09/05 11:26:25;;;;;;;;;;;;;;;24.45;44.48;101192.69;5113741;28;1525;-47
2021/09/05 11:28:53;;;;;;;;;;;;;;;24.45;44.94;101192.69;5096459;28;1764;-47
2021/09/05 11:31:23;;;;;;;;;;;;;;;24.45;43.44;101179.16;5113844;28;1902;-47
2021/09/05 11:33:55;;;;;;;;;;;;;;;24.51;43.77;101194.81;5095830;28;1462;-47
2021/09/05 11:36:39;;;;;;;;;;;;;;;24.48;44.10;101173.44;5095243;28;994;-47
2021/09/05 11:39:14;;;;;;;;;;;;;;;24.47;44.12;101198.81;5096068;27;1433;-47
2021/09/05 11:41:45;;;;;;;;;;;;;;;24.45;43.67;101189.97;5110441;27;1727;-47
2021/09/05 11:44:12;;;;;;;;;;;;;;;24.41;43.96;101189.47;5109427;27;1723;-48
2021/09/05 11:46:40;;;;;;;;;;;;;;;24.43;44.75;101181.19;5103121;27;1711;-47
2021/09/05 11:49:06;;;;;;;;;;;;;;;24.46;41.45;101183.59;5112747;28;1598;-47
2021/09/05 11:51:33;;;;;;;;;;;;;;;24.50;44.03;101171.47;5109305;28;1905;-47
2021/09/05 11:54:02;;;;;;;;;;;;;;;24.45;44.61;101192.69;5102827;28;1047;-47
2021/09/05 11:56:38;;;;;;;;;;;;;;;24.41;44.26;101180.50;5103250;28;1712;-48
2021/09/05 11:59:14;;;;;;;;;;;;;;;24.40;43.58;101181.53;5102952;27;1633;-47
2021/09/05 12:01:46;;;;;;;;;;;;;;;24.44;42.94;101187.47;5099539;27;1809;-47
2021/09/05 12:04:13;;;;;;;;;;;;;;;24.50;42.70;101186.81;5106719;27;1826;-47
2021/09/05 12:09:29;;;;;;;;;;;;;;;24.47;44.51;101187.13;5106916;28;2593;-47
2021/09/05 12:12:00;;;;;;;;;;;;;;;24.49;44.30;101188.69;5101719;28;1909;-47
2021/09/05 12:14:29;;;;;;;;;;;;;;;24.56;43.90;101169.97;5111666;28;2038;-47
2021/09/05 12:16:56;;;;;;;;;;;;;;;24.60;43.58;101171.34;5098448;28;1535;-47
2021/09/05 12:19:23;;;;;;;;;;;;;;;24.53;43.52;101186.50;5094288;28;1841;-47
2021/09/05 12:21:58;;;;;;;;;;;;;;;24.49;42.93;101171.59;5096877;28;1897;-47
2021/09/05 12:24:25;;;;;;;;;;;;;;;24.49;42.78;101179.69;5098516;28;1865;-47
2021/09/05 12:26:53;;;;;;;;;;;;;;;24.48;42.58;101176.16;5094547;28;1959;-47
2021/09/05 12:29:40;;;;;;;;;;;;;;;24.55;43.00;101162.84;5095093;28;2819;-46
2021/09/05 12:32:10;;;;;;;;;;;;;;;24.61;43.70;101163.06;5112587;28;2001;-46
2021/09/05 12:34:40;;;;;;;;;;;;;;;24.69;42.88;101164.97;5102803;28;1800;-46
2021/09/05 12:37:11;;;;;;;;;;;;;;;24.63;43.29;101164.75;5107987;28;1537;-47
2021/09/05 12:39:39;;;;;;;;;;;;;;;24.58;42.78;101168.78;5094205;28;1818;-46
2021/09/05 12:42:19;;;;;;;;;;;;;;;24.49;45.46;101158.94;5099057;28;1603;-49
2021/09/05 12:44:49;;;;;;;;;;;;;;;24.52;41.55;101165.91;5107295;28;1691;-46
2021/09/05 12:47:21;;;;;;;;;;;;;;;24.54;44.04;101162.03;5105816;28;1977;-47
2021/09/05 12:49:57;;;;;;;;;;;;;;;24.51;43.81;101151.53;5105242;28;1796;-47
2021/09/05 12:52:27;;;;;;;;;;;;;;;24.48;43.52;101157.22;5093617;28;2010;-46
2021/09/05 12:54:54;;;;;;;;;;;;;;;24.54;43.67;101162.03;5103479;28;1081;-46
2021/09/05 12:57:22;;;;;;;;;;;;;;;24.63;43.82;101165.63;5086677;28;1492;-47
2021/09/05 12:59:54;;;;;;;;;;;;;;;24.69;41.90;101161.38;5097387;28;1521;-47
2021/09/05 13:02:36;;;;;;;;;;;;;;;24.76;41.38;101163.28;5100597;28;1637;-47
2021/09/05 13:05:06;;;;;;;;;;;;;;;24.81;42.16;101150.13;5104272;28;1446;-47
2021/09/05 13:07:40;;;;;;;;;;;;;;;24.85;41.63;101156.06;5093512;28;1590;-47
2021/09/05 13:10:08;;;;;;;;;;;;;;;24.84;41.31;101156.22;5094182;28;1698;-47
2021/09/05 13:12:38;;;;;;;;;;;;;;;24.85;40.74;101150.66;5100122;28;1930;-47
2021/09/05 13:15:10;;;;;;;;;;;;;;;24.88;41.60;101125.13;5096567;28;1657;-47
2021/09/05 13:17:40;;;;;;;;;;;;;;;24.88;41.63;101150.31;5095895;28;1948;-46
2021/09/05 13:20:08;;;;;;;;;;;;;;;24.85;42.31;101152.47;5099890;28;1699;-47
2021/09/05 13:22:49;;;;;;;;;;;;;;;24.84;42.35;101167.03;5106824;28;1945;-47
2021/09/05 13:25:23;;;;;;;;;;;;;;;24.74;42.03;101167.16;5092642;28;1652;-47
2021/09/05 13:27:50;;;;;;;;;;;;;;;24.76;42.80;101165.16;5102308;28;2002;-46
2021/09/05 13:30:20;;;;;;;;;;;;;;;24.71;42.93;101164.78;5098500;28;1529;-45
2021/09/05 13:32:51;;;;;;;;;;;;;;;24.77;43.73;101172.22;5101822;28;1959;-46
2021/09/05 13:35:21;;;;;;;;;;;;;;;24.73;42.48;101173.56;5099969;28;1985;-47
2021/09/05 13:37:55;;;;;;;;;;;;;;;24.67;42.08;101176.94;5100144;28;1876;-46
2021/09/05 13:40:23;;;;;;;;;;;;;;;24.71;43.92;101178.31;5095233;28;1734;-47
2021/09/05 13:42:52;;;;;;;;;;;;;;;24.65;42.50;101178.97;5094416;28;2098;-47
2021/09/05 13:45:28;;;;;;;;;;;;;;;24.69;43.33;101180.31;5100920;28;1640;-47
2021/09/05 13:47:58;;;;;;;;;;;;;;;24.70;44.11;101171.22;5099296;28;1714;-47
2021/09/05 13:50:26;;;;;;;;;;;;;;;24.66;43.94;101177.97;5095540;28;1591;-46
2021/09/05 13:52:53;;;;;;;;;;;;;;;24.67;43.10;101191.31;5093182;28;1909;-47
2021/09/05 13:55:21;;;;;;;;;;;;;;;24.77;42.89;101188.47;5093092;28;1551;-46
2021/09/05 13:57:48;;;;;;;;;;;;;;;24.67;42.78;101166.13;5099779;28;2412;-45
2021/09/05 14:00:19;;;;;;;;;;;;;;;24.67;42.33;101198.56;5097855;28;1941;-45
2021/09/05 14:02:51;;;;;;;;;;;;;;;24.70;41.26;101182.88;5103344;28;1947;-47
2021/09/05 14:05:38;;;;;;;;;;;;;;;24.64;40.96;101188.09;5097139;28;1713;-47
2021/09/05 14:08:06;;;;;;;;;;;;;;;24.63;41.05;101187.25;5095745;28;1725;-48
2021/09/05 14:10:33;;;;;;;;;;;;;;;24.56;41.63;101169.97;5092695;28;1001;-49
2021/09/05 14:13:01;;;;;;;;;;;;;;;24.63;41.57;101205.31;5095133;28;1996;-48
2021/09/05 14:15:29;;;;;;;;;;;;;;;24.52;41.10;101182.97;5093238;28;1909;-47
2021/09/05 14:17:58;;;;;;;;;;;;;;;24.58;40.48;101178.78;5107635;28;1459;-47
2021/09/05 14:20:26;;;;;;;;;;;;;;;24.69;42.08;101183.91;5106302;28;1955;-47
2021/09/05 14:22:53;;;;;;;;;;;;;;;24.65;41.31;101184.38;5098984;28;1411;-50
2021/09/05 14:25:21;;;;;;;;;;;;;;;24.55;41.59;101174.53;5092895;28;1924;-48
2021/09/05 14:27:51;;;;;;;;;;;;;;;24.59;41.30;101177.75;5098741;28;1661;-48
2021/09/05 14:30:29;;;;;;;;;;;;;;;24.52;41.41;101193.78;5103829;28;1959;-47
2021/09/05 14:33:02;;;;;;;;;;;;;;;24.51;42.62;101184.00;5082875;28;1909;-47
2021/09/05 14:49:23;;;;;;;;;;;;;;;24.57;40.62;101204.09;5092431;28;1808;-48
2021/09/05 14:54:50;;;;;;;;;;;;;;;24.55;42.00;101198.00;5094724;28;1678;-52
2021/09/05 14:57:18;;;;;;;;;;;;;;;24.58;42.57;101201.25;5095169;28;1608;-48
2021/09/05 14:59:46;;;;;;;;;;;;;;;24.51;41.31;101199.34;5107919;28;1815;-48
2021/09/05 15:02:15;;;;;;;;;;;;;;;24.52;41.60;101191.06;5102599;28;1859;-48